Impacts TAF Board INFO
FOR SITUATIONAL AWARENESS. NOT TO BE USED FOR FLIGHT PLANNING PURPOSES.
IDs:

KLAX - Los Angeles Intl, CA, US

Issued at 2331 UTC 21 Jan 2018
Updated at 0159 UTC 22 Jan 2018
Potential Impact None Slight Moderate High
Time<<23/02Z 23/03Z 23/04Z 23/05Z 23/06Z 23/07Z 23/08Z 23/09Z 23/10Z 23/11Z 23/12Z 23/13Z 23/14Z
Type PRVL PRVL PRVL PRVL
VIS >6 >6 >6 >6
CIG -- -- -- --
Cover SCT FEW FEW FEW
FltCat VFR VFR VFR VFR
WX -- -- -- --
WDir 270 280 280 280
WSpd 10 6 6 6
WGst -- -- -- --

Raw TAF
KLAX 212331Z 2200/2306 26010KT P6SM BKN200
  FM220400 VRB03KT P6SM BKN180
  FM220600 05003KT P6SM BKN100
  FM222000 27006KT P6SM SCT250
  FM222200 27010KT P6SM SCT250
  FM230300 28006KT P6SM FEW250


METAR Board
Radar Display
Forecast Discussion

FOR SITUATIONAL AWARENESS. NOT TO BE USED FOR FLIGHT PLANNING PURPOSES.